createdAt,value
2023-02-22T00:01:36.029Z,1.90
2023-02-22T00:04:05.690Z,1.48
2023-02-22T00:06:33.501Z,1.77
2023-02-22T00:09:02.718Z,1.70
2023-02-22T00:11:31.702Z,1.45
2023-02-22T00:13:59.352Z,1.13
2023-02-22T00:16:27.859Z,1.58
2023-02-22T00:18:55.542Z,1.10
2023-02-22T00:21:27.289Z,1.52
2023-02-22T00:23:54.739Z,1.20
2023-02-22T00:26:23.466Z,1.17
2023-02-22T00:28:52.511Z,1.30
2023-02-22T00:31:20.939Z,1.55
2023-02-22T00:33:49.038Z,1.70
2023-02-22T00:36:16.316Z,2.03
2023-02-22T00:38:43.532Z,1.50
2023-02-22T00:41:12.143Z,1.85
2023-02-22T00:43:39.342Z,1.67
2023-02-22T00:46:06.928Z,1.30
2023-02-22T00:48:34.538Z,1.48
2023-02-22T00:51:01.814Z,1.52
2023-02-22T00:53:29.179Z,1.50
2023-02-22T00:55:56.996Z,1.45
2023-02-22T00:58:24.433Z,2.10
2023-02-22T01:00:52.794Z,1.67
2023-02-22T01:03:20.575Z,1.92
2023-02-22T01:05:48.053Z,2.10
2023-02-22T01:08:17.030Z,2.17
2023-02-22T01:10:44.438Z,2.25
2023-02-22T01:13:15.581Z,2.83
2023-02-22T01:15:44.871Z,3.00
2023-02-22T01:18:12.836Z,4.10
2023-02-22T01:20:40.858Z,3.97
2023-02-22T01:23:10.614Z,4.10
2023-02-22T01:25:39.096Z,4.30
2023-02-22T01:28:07.522Z,4.78
2023-02-22T01:30:39.493Z,4.70
2023-02-22T01:33:07.435Z,3.42
2023-02-22T01:35:37.002Z,2.67
2023-02-22T01:38:04.421Z,2.50
2023-02-22T01:40:33.796Z,2.30
2023-02-22T01:43:05.078Z,2.70
2023-02-22T01:45:35.238Z,2.45
2023-02-22T01:48:02.400Z,2.20
2023-02-22T01:50:29.942Z,2.03
2023-02-22T01:52:57.305Z,3.90
2023-02-22T01:55:24.573Z,3.13
2023-02-22T01:57:51.790Z,2.88
2023-02-22T02:00:21.249Z,2.63
2023-02-22T02:02:53.179Z,2.70
2023-02-22T02:05:20.502Z,2.53
2023-02-22T02:07:49.298Z,2.78
2023-02-22T02:10:16.552Z,2.13
2023-02-22T02:12:45.601Z,2.47
2023-02-22T02:15:17.457Z,2.97
2023-02-22T02:17:45.253Z,3.03
2023-02-22T02:20:31.418Z,3.10
2023-02-22T02:23:14.530Z,2.90
2023-02-22T02:25:44.708Z,3.17
2023-02-22T02:28:34.159Z,3.75
2023-02-22T02:31:20.237Z,3.90
2023-02-22T02:34:10.316Z,3.40
2023-02-22T02:37:14.281Z,3.50
2023-02-22T02:40:01.644Z,4.20
2023-02-22T02:42:33.768Z,4.32
2023-02-22T02:45:10.058Z,4.65
2023-02-22T02:47:41.605Z,4.47
2023-02-22T02:50:19.098Z,4.53
2023-02-22T02:52:46.943Z,4.95
2023-02-22T02:55:14.388Z,4.93
2023-02-22T02:57:41.797Z,4.57
2023-02-22T03:00:23.948Z,5.05
2023-02-22T03:03:19.148Z,5.22
2023-02-22T03:06:10.647Z,5.72
2023-02-22T03:09:17.428Z,5.97
2023-02-22T03:11:55.597Z,6.90
2023-02-22T03:14:33.820Z,7.03
2023-02-22T03:17:05.136Z,7.35
2023-02-22T03:19:36.727Z,6.78
2023-02-22T03:22:14.125Z,7.05
2023-02-22T03:24:54.642Z,7.70
2023-02-22T03:27:43.773Z,7.60
2023-02-22T03:30:32.854Z,7.55
2023-02-22T03:33:02.106Z,7.95
2023-02-22T03:35:32.214Z,7.28
2023-02-22T03:38:00.930Z,7.57
2023-02-22T03:40:33.677Z,6.97
2023-02-22T03:43:06.635Z,7.60
2023-02-22T03:45:34.503Z,6.85
2023-02-22T03:48:06.378Z,7.47
2023-02-22T03:50:35.671Z,6.93
2023-02-22T03:53:03.144Z,7.07
2023-02-22T03:55:31.458Z,5.35
2023-02-22T03:58:00.438Z,7.00
2023-02-22T04:00:30.620Z,7.07
2023-02-22T04:02:58.870Z,6.03
2023-02-22T04:05:26.401Z,7.13
2023-02-22T04:07:54.664Z,6.88
2023-02-22T04:10:22.557Z,6.45
2023-02-22T04:12:50.854Z,6.47
2023-02-22T04:15:22.815Z,5.78
2023-02-22T04:17:52.237Z,6.60
2023-02-22T04:20:20.008Z,6.68
2023-02-22T04:22:47.567Z,6.97
2023-02-22T04:25:15.054Z,6.75
2023-02-22T04:27:42.358Z,6.13
2023-02-22T04:30:10.897Z,5.57
2023-02-22T04:32:39.165Z,6.28
2023-02-22T04:35:06.835Z,7.25
2023-02-22T04:37:37.176Z,6.70
2023-02-22T04:40:07.817Z,6.20
2023-02-22T04:42:36.049Z,6.18
2023-02-22T04:45:05.081Z,6.40
2023-02-22T04:47:32.337Z,6.28
2023-02-22T04:50:00.465Z,5.95
2023-02-22T04:52:27.772Z,6.90
2023-02-22T04:54:55.129Z,6.47
2023-02-22T04:57:22.542Z,6.47
2023-02-22T04:59:51.299Z,6.75
2023-02-22T05:02:19.041Z,6.05
2023-02-22T05:04:46.250Z,6.28
2023-02-22T05:07:13.512Z,6.30
2023-02-22T05:09:40.817Z,6.25
2023-02-22T05:12:08.766Z,6.93
2023-02-22T05:14:36.090Z,6.60
2023-02-22T05:19:35.026Z,6.13
2023-02-22T05:22:02.685Z,5.93
2023-02-22T05:24:30.835Z,6.55
2023-02-22T05:26:58.221Z,6.30
2023-02-22T05:29:25.924Z,5.60
2023-02-22T05:31:53.264Z,5.10
2023-02-22T05:34:21.301Z,6.38
2023-02-22T05:36:48.532Z,5.88
2023-02-22T05:39:15.877Z,6.43
2023-02-22T05:41:43.101Z,7.32
2023-02-22T05:44:10.334Z,6.82
2023-02-22T05:46:39.163Z,6.45
2023-02-22T05:49:06.416Z,6.07
2023-02-22T05:51:35.099Z,6.57
2023-02-22T05:54:02.326Z,6.50
2023-02-22T05:56:30.656Z,6.30
2023-02-22T05:58:58.523Z,5.28
2023-02-22T06:01:26.197Z,6.05
2023-02-22T06:03:53.488Z,5.80
2023-02-22T06:06:22.324Z,5.18
2023-02-22T06:08:49.806Z,5.25
2023-02-22T06:11:17.676Z,4.95
2023-02-22T06:13:51.894Z,5.43
2023-02-22T06:16:21.741Z,4.90
2023-02-22T06:18:49.282Z,4.70
2023-02-22T06:21:17.727Z,4.53
2023-02-22T06:23:45.468Z,4.43
2023-02-22T06:26:12.692Z,3.65
2023-02-22T06:28:40.236Z,5.22
2023-02-22T06:31:07.531Z,4.65
2023-02-22T06:33:34.863Z,3.65
2023-02-22T06:36:02.042Z,4.35
2023-02-22T06:38:29.695Z,3.88
2023-02-22T06:40:57.078Z,5.15
2023-02-22T06:43:24.912Z,6.22
2023-02-22T06:45:52.534Z,6.10
2023-02-22T06:48:19.861Z,4.18
2023-02-22T06:50:47.404Z,5.03
2023-02-22T06:53:16.077Z,4.90
2023-02-22T06:55:43.350Z,4.60
2023-02-22T06:58:10.858Z,5.05
2023-02-22T07:00:39.500Z,5.53
2023-02-22T07:03:06.739Z,5.07
2023-02-22T07:05:34.041Z,5.05
2023-02-22T07:08:05.667Z,8.27
2023-02-22T07:10:35.261Z,22.70
2023-02-22T07:13:09.328Z,8.20
2023-02-22T07:15:36.642Z,16.08
2023-02-22T07:18:04.557Z,8.00
2023-02-22T07:20:33.205Z,12.50
2023-02-22T07:23:01.285Z,7.25
2023-02-22T07:25:29.158Z,7.10
2023-02-22T07:27:56.662Z,6.55
2023-02-22T07:30:30.787Z,6.25
2023-02-22T07:32:59.221Z,7.30
2023-02-22T07:35:28.644Z,7.45
2023-02-22T07:37:59.889Z,6.28
2023-02-22T07:40:27.767Z,7.18
2023-02-22T07:43:01.696Z,6.05
2023-02-22T07:45:30.972Z,8.30
2023-02-22T07:47:58.983Z,6.75
2023-02-22T07:50:27.257Z,6.25
2023-02-22T07:52:55.337Z,6.78
2023-02-22T07:55:24.881Z,6.78
2023-02-22T07:57:53.432Z,6.40
2023-02-22T08:00:30.623Z,6.07
2023-02-22T08:02:59.017Z,7.03
2023-02-22T08:05:27.457Z,7.28
2023-02-22T08:07:55.108Z,6.57
2023-02-22T08:10:23.373Z,7.32
2023-02-22T08:12:51.776Z,6.32
2023-02-22T08:15:31.413Z,6.93
2023-02-22T08:17:59.432Z,7.40
2023-02-22T08:20:27.466Z,7.88
2023-02-22T08:22:55.597Z,7.57
2023-02-22T08:25:25.399Z,7.90
2023-02-22T08:27:58.773Z,8.77
2023-02-22T08:30:26.166Z,8.77
2023-02-22T08:32:55.663Z,7.13
2023-02-22T08:35:23.191Z,7.68
2023-02-22T08:37:52.919Z,8.20
2023-02-22T08:40:25.248Z,9.55
2023-02-22T08:42:52.552Z,8.95
2023-02-22T08:45:19.939Z,7.82
2023-02-22T08:47:47.900Z,9.57
2023-02-22T08:50:23.918Z,8.75
2023-02-22T08:52:52.403Z,9.98
2023-02-22T08:55:32.214Z,8.93
2023-02-22T08:58:01.531Z,8.75
2023-02-22T09:00:30.770Z,9.02
2023-02-22T09:02:57.987Z,8.73
2023-02-22T09:05:25.219Z,9.68
2023-02-22T09:07:52.400Z,8.65
2023-02-22T09:10:27.993Z,8.38
2023-02-22T09:13:01.065Z,8.98
2023-02-22T09:15:29.131Z,8.48
2023-02-22T09:17:56.404Z,8.60
2023-02-22T09:20:24.001Z,10.40
2023-02-22T09:22:51.814Z,10.25
2023-02-22T09:25:20.649Z,9.55
2023-02-22T09:27:49.464Z,8.77
2023-02-22T09:30:25.205Z,9.80
2023-02-22T09:32:54.068Z,9.63
2023-02-22T09:35:26.973Z,9.45
2023-02-22T09:37:56.267Z,8.88
2023-02-22T09:40:29.769Z,10.05
2023-02-22T09:43:22.986Z,14.18
2023-02-22T09:45:55.949Z,29.30
2023-02-22T09:48:25.374Z,8.93
2023-02-22T09:50:53.886Z,7.88
2023-02-22T09:53:41.867Z,8.13
2023-02-22T09:56:14.689Z,8.30
2023-02-22T09:58:47.407Z,8.48
2023-02-22T10:01:46.640Z,8.30
2023-02-22T10:04:36.353Z,8.45
2023-02-22T10:07:06.737Z,9.55
2023-02-22T10:09:42.673Z,8.80
2023-02-22T10:12:19.071Z,8.45
2023-02-22T10:15:12.476Z,9.45
2023-02-22T10:17:39.696Z,10.15
2023-02-22T10:20:28.645Z,10.02
2023-02-22T10:23:16.797Z,8.55
2023-02-22T10:25:45.118Z,9.38
2023-02-22T10:28:21.467Z,9.77
2023-02-22T10:30:59.213Z,7.82
2023-02-22T10:33:38.360Z,9.38
2023-02-22T10:36:16.583Z,8.70
2023-02-22T10:38:48.829Z,9.00
2023-02-22T10:41:45.426Z,7.65
2023-02-22T10:44:12.640Z,8.40
2023-02-22T10:46:42.208Z,7.90
2023-02-22T10:49:10.209Z,8.27
2023-02-22T10:51:39.321Z,8.35
2023-02-22T10:54:15.941Z,7.68
2023-02-22T10:56:50.840Z,7.32
2023-02-22T10:59:35.241Z,7.93
2023-02-22T11:02:23.750Z,7.50
2023-02-22T11:04:54.924Z,7.43
2023-02-22T11:07:22.882Z,7.50
2023-02-22T11:09:55.481Z,6.70
2023-02-22T11:12:27.600Z,7.88
2023-02-22T11:14:54.972Z,7.20
2023-02-22T11:17:32.047Z,6.68
2023-02-22T11:20:00.341Z,8.07
2023-02-22T11:22:35.851Z,10.15
2023-02-22T11:25:03.576Z,7.93
2023-02-22T11:27:38.682Z,7.93
2023-02-22T11:30:32.564Z,7.78
2023-02-22T11:33:01.430Z,8.82
2023-02-22T11:35:28.571Z,8.10
2023-02-22T11:38:21.303Z,8.20
2023-02-22T11:41:14.552Z,8.40
2023-02-22T11:43:48.191Z,7.88
2023-02-22T11:46:29.212Z,8.07
2023-02-22T11:49:08.422Z,7.78
2023-02-22T11:51:57.369Z,8.60
2023-02-22T11:54:33.997Z,7.32
2023-02-22T11:57:22.284Z,7.80
2023-02-22T11:59:59.913Z,8.55
2023-02-22T12:02:57.012Z,8.80
2023-02-22T12:05:30.749Z,7.80
2023-02-22T12:08:19.632Z,7.85
2023-02-22T12:10:51.135Z,8.23
2023-02-22T12:13:30.023Z,7.03
2023-02-22T12:16:14.066Z,7.60
2023-02-22T12:18:57.333Z,8.82
2023-02-22T12:21:24.601Z,8.25
2023-02-22T12:24:16.414Z,7.30
2023-02-22T12:26:55.481Z,7.93
2023-02-22T12:29:26.377Z,6.65
2023-02-22T12:32:01.957Z,7.72
2023-02-22T12:34:31.992Z,10.32
2023-02-22T12:37:17.826Z,6.90
2023-02-22T12:40:06.346Z,7.70
2023-02-22T12:42:55.561Z,7.05
2023-02-22T12:45:28.345Z,8.63
2023-02-22T12:48:15.081Z,7.63
2023-02-22T12:50:42.601Z,7.18
2023-02-22T12:53:22.036Z,6.97
2023-02-22T12:56:16.037Z,7.55
2023-02-22T12:58:54.094Z,7.85
2023-02-22T13:01:22.995Z,7.38
2023-02-22T13:03:50.389Z,7.28
2023-02-22T13:06:38.933Z,10.68
2023-02-22T13:09:45.493Z,9.70
2023-02-22T13:12:18.645Z,11.23
2023-02-22T13:15:12.836Z,7.93
2023-02-22T13:17:50.861Z,7.60
2023-02-22T13:20:24.871Z,7.30
2023-02-22T13:23:22.119Z,7.68
2023-02-22T13:25:49.951Z,7.20
2023-02-22T13:28:19.969Z,6.35
2023-02-22T13:31:00.713Z,7.38
2023-02-22T13:33:28.311Z,6.18
2023-02-22T13:36:10.128Z,6.57
2023-02-22T13:39:12.181Z,7.05
2023-02-22T13:42:04.523Z,6.72
2023-02-22T13:45:04.336Z,5.57
2023-02-22T13:47:40.702Z,6.70
2023-02-22T13:50:34.292Z,5.85
2023-02-22T13:53:04.068Z,5.20
2023-02-22T13:55:32.970Z,6.57
2023-02-22T13:58:02.940Z,7.13
2023-02-22T14:00:50.378Z,6.13
2023-02-22T14:03:34.299Z,5.28
2023-02-22T14:06:03.559Z,6.00
2023-02-22T14:08:36.925Z,6.30
2023-02-22T14:11:06.069Z,6.85
2023-02-22T14:14:00.803Z,5.82
2023-02-22T14:16:29.013Z,6.40
2023-02-22T14:19:25.025Z,7.25
2023-02-22T14:22:02.525Z,6.07
2023-02-22T14:24:42.708Z,6.32
2023-02-22T14:27:10.202Z,6.40
2023-02-22T14:29:53.663Z,5.93
2023-02-22T14:34:58.096Z,6.38
2023-02-22T14:37:36.979Z,5.65
2023-02-22T14:40:13.641Z,6.03
2023-02-22T14:42:48.007Z,6.35
2023-02-22T14:45:29.766Z,6.57
2023-02-22T14:48:25.027Z,6.30
2023-02-22T14:51:11.788Z,7.32
2023-02-22T14:53:47.776Z,5.80
2023-02-22T14:56:23.041Z,5.63
2023-02-22T14:59:22.064Z,5.55
2023-02-22T15:02:05.756Z,6.70
2023-02-22T15:04:37.814Z,5.90
2023-02-22T15:07:19.723Z,5.30
2023-02-22T15:09:48.415Z,6.28
2023-02-22T15:12:29.966Z,6.40
2023-02-22T15:15:21.847Z,5.00
2023-02-22T15:17:53.754Z,4.57
2023-02-22T15:20:21.225Z,4.82
2023-02-22T15:22:49.476Z,5.85
2023-02-22T15:25:16.689Z,5.40
2023-02-22T15:27:46.936Z,5.88
2023-02-22T15:30:26.542Z,5.57
2023-02-22T15:33:04.252Z,6.22
2023-02-22T15:35:33.506Z,5.57
2023-02-22T15:38:03.054Z,6.72
2023-02-22T15:40:33.310Z,6.00
2023-02-22T15:43:02.384Z,6.88
2023-02-22T15:45:29.770Z,8.13
2023-02-22T15:47:58.703Z,7.40
2023-02-22T15:50:29.302Z,8.10
2023-02-22T15:55:32.077Z,5.55
2023-02-22T15:58:02.252Z,6.53
2023-02-22T16:00:36.946Z,6.78
2023-02-22T16:03:14.908Z,6.68
2023-02-22T16:05:47.593Z,7.45
2023-02-22T16:08:19.531Z,6.40
2023-02-22T16:11:13.395Z,7.20
2023-02-22T16:13:42.585Z,6.25
2023-02-22T16:16:27.977Z,5.43
2023-02-22T16:19:42.352Z,6.32
2023-02-22T16:22:26.736Z,5.80
2023-02-22T16:24:54.621Z,5.65
2023-02-22T16:27:23.868Z,5.30
2023-02-22T16:30:23.337Z,6.30
2023-02-22T16:32:51.800Z,5.47
2023-02-22T16:35:19.277Z,5.38
2023-02-22T16:37:51.379Z,5.97
2023-02-22T16:42:51.549Z,5.40
2023-02-22T16:45:19.548Z,5.35
2023-02-22T16:47:46.851Z,6.65
2023-02-22T16:50:17.268Z,5.68
2023-02-22T16:52:44.709Z,5.45
2023-02-22T16:55:15.971Z,6.13
2023-02-22T16:57:43.272Z,6.13
2023-02-22T17:00:15.739Z,6.70
2023-02-22T17:02:45.020Z,5.10
2023-02-22T17:05:15.937Z,6.85
2023-02-22T17:07:43.582Z,5.78
2023-02-22T17:10:18.908Z,6.43
2023-02-22T17:12:47.972Z,6.53
2023-02-22T17:15:21.679Z,7.00
2023-02-22T17:17:50.180Z,5.50
2023-02-22T17:20:29.853Z,6.72
2023-02-22T17:23:01.286Z,5.47
2023-02-22T17:25:32.304Z,5.75
2023-02-22T17:27:59.619Z,6.72
2023-02-22T17:30:27.126Z,5.95
2023-02-22T17:33:03.567Z,4.80
2023-02-22T17:35:37.062Z,5.75
2023-02-22T17:38:06.354Z,6.05
2023-02-22T17:40:34.830Z,6.35
2023-02-22T17:43:02.876Z,6.47
2023-02-22T17:45:30.512Z,6.93
2023-02-22T17:48:00.957Z,7.18
2023-02-22T17:50:28.657Z,8.07
2023-02-22T17:52:57.147Z,5.88
2023-02-22T17:55:24.339Z,6.07
2023-02-22T17:57:56.868Z,7.15
2023-02-22T18:00:33.032Z,6.85
2023-02-22T18:03:11.224Z,7.13
2023-02-22T18:05:46.337Z,6.63
2023-02-22T18:08:14.370Z,8.27
2023-02-22T18:10:44.988Z,6.63
2023-02-22T18:13:17.870Z,7.43
2023-02-22T18:15:46.909Z,8.13
2023-02-22T18:18:16.167Z,7.25
2023-02-22T18:20:44.588Z,8.35
2023-02-22T18:23:17.013Z,7.57
2023-02-22T18:26:07.603Z,8.77
2023-02-22T18:28:36.855Z,8.45
2023-02-22T18:31:15.312Z,8.00
2023-02-22T18:33:46.487Z,8.48
2023-02-22T18:36:14.291Z,6.97
2023-02-22T18:38:43.066Z,8.20
2023-02-22T18:41:12.118Z,7.30
2023-02-22T18:43:39.500Z,7.22
2023-02-22T18:46:14.314Z,6.53
2023-02-22T18:48:42.068Z,6.38
2023-02-22T18:51:12.915Z,8.63
2023-02-22T18:53:41.121Z,6.68
2023-02-22T18:56:10.976Z,5.38
2023-02-22T18:58:38.897Z,6.93
2023-02-22T19:01:06.805Z,7.95
2023-02-22T19:03:38.094Z,5.22
2023-02-22T19:06:09.545Z,6.03
2023-02-22T19:08:41.029Z,5.20
2023-02-22T19:11:11.523Z,5.22
2023-02-22T19:13:39.929Z,6.30
2023-02-22T19:16:09.947Z,5.90
2023-02-22T19:18:37.688Z,5.28
2023-02-22T19:21:08.765Z,5.63
2023-02-22T19:23:45.584Z,5.93
2023-02-22T19:26:20.124Z,6.65
2023-02-22T19:28:47.996Z,6.20
2023-02-22T19:31:19.552Z,6.45
2023-02-22T19:33:48.185Z,5.80
2023-02-22T19:36:17.119Z,6.38
2023-02-22T19:38:44.545Z,6.13
2023-02-22T19:41:17.684Z,6.90
2023-02-22T19:43:50.167Z,5.72
2023-02-22T19:46:21.394Z,6.78
2023-02-22T19:48:49.417Z,6.47
2023-02-22T19:51:17.923Z,6.90
2023-02-22T19:53:46.134Z,6.10
2023-02-22T19:56:19.288Z,6.97
2023-02-22T19:58:48.381Z,5.65
2023-02-22T20:01:24.025Z,5.95
2023-02-22T20:03:54.760Z,6.53
2023-02-22T20:06:25.624Z,6.13
2023-02-22T20:08:52.994Z,6.88
2023-02-22T20:11:24.931Z,6.72
2023-02-22T20:13:52.728Z,8.63
2023-02-22T20:16:20.263Z,7.88
2023-02-22T20:18:48.333Z,8.02
2023-02-22T20:21:32.596Z,7.03
2023-02-22T20:24:00.847Z,6.82
2023-02-22T20:26:29.513Z,7.00
2023-02-22T20:28:56.983Z,6.75
2023-02-22T20:31:24.510Z,6.55
2023-02-22T20:33:56.078Z,6.93
2023-02-22T20:36:23.522Z,8.57
2023-02-22T20:39:13.724Z,6.22
2023-02-22T20:41:44.200Z,10.10
2023-02-22T20:44:13.612Z,7.20
2023-02-22T20:46:43.699Z,6.80
2023-02-22T20:49:13.476Z,6.55
2023-02-22T20:51:41.962Z,5.07
2023-02-22T20:54:12.185Z,5.80
2023-02-22T20:56:41.833Z,5.70
2023-02-22T20:59:14.780Z,5.72
2023-02-22T21:01:42.684Z,5.07
2023-02-22T21:04:10.296Z,4.97
2023-02-22T21:06:38.142Z,5.53
2023-02-22T21:09:12.230Z,5.25
2023-02-22T21:11:41.453Z,6.40
2023-02-22T21:14:16.736Z,4.45
2023-02-22T21:16:44.934Z,6.10
2023-02-22T21:19:15.395Z,4.65
2023-02-22T21:21:42.913Z,6.05
2023-02-22T21:24:10.884Z,5.20
2023-02-22T21:26:38.128Z,6.13
2023-02-22T21:29:06.034Z,5.32
2023-02-22T21:31:34.250Z,5.60
2023-02-22T21:34:02.028Z,6.00
2023-02-22T21:36:29.642Z,5.75
2023-02-22T21:38:58.591Z,5.53
2023-02-22T21:41:28.958Z,6.50
2023-02-22T21:43:57.322Z,7.50
2023-02-22T21:46:25.328Z,4.70
2023-02-22T21:48:52.652Z,5.85
2023-02-22T21:51:21.806Z,4.70
2023-02-22T21:53:53.510Z,4.75
2023-02-22T21:56:27.697Z,5.53
2023-02-22T21:59:03.014Z,4.55
2023-02-22T22:01:36.006Z,5.50
2023-02-22T22:04:04.049Z,5.07
2023-02-22T22:06:33.091Z,6.20
2023-02-22T22:09:01.103Z,4.55
2023-02-22T22:11:30.698Z,4.68
2023-02-22T22:13:59.751Z,5.75
2023-02-22T22:16:33.097Z,5.32
2023-02-22T22:19:01.970Z,5.90
2023-02-22T22:21:29.389Z,6.18
2023-02-22T22:23:58.009Z,5.43
2023-02-22T22:26:25.826Z,5.75
2023-02-22T22:28:58.204Z,6.45
2023-02-22T22:31:28.289Z,5.55
2023-02-22T22:33:56.309Z,5.70
2023-02-22T22:36:24.409Z,5.72
2023-02-22T22:38:52.831Z,5.75
2023-02-22T22:41:21.634Z,4.40
2023-02-22T22:43:49.173Z,4.93
2023-02-22T22:46:17.105Z,5.80
2023-02-22T22:48:47.141Z,5.65
2023-02-22T22:51:18.510Z,5.80
2023-02-22T22:53:48.074Z,6.70
2023-02-22T22:56:20.609Z,6.25
2023-02-22T22:58:52.329Z,4.68
2023-02-22T23:01:27.943Z,5.53
2023-02-22T23:04:02.143Z,5.93
2023-02-22T23:06:35.317Z,5.85
2023-02-22T23:09:11.411Z,4.25
2023-02-22T23:11:46.229Z,6.07
2023-02-22T23:14:15.858Z,7.28
2023-02-22T23:16:45.004Z,6.90
2023-02-22T23:19:15.769Z,6.20
2023-02-22T23:21:44.038Z,6.82
2023-02-22T23:24:13.084Z,6.72
2023-02-22T23:26:41.514Z,7.03
2023-02-22T23:29:09.796Z,6.38
2023-02-22T23:31:39.820Z,5.88
2023-02-22T23:34:13.965Z,7.22
2023-02-22T23:36:46.757Z,6.55
2023-02-22T23:41:42.511Z,5.85
2023-02-22T23:44:17.433Z,6.35
2023-02-22T23:46:48.442Z,7.05
2023-02-22T23:49:20.177Z,7.28
2023-02-22T23:51:47.529Z,7.25
2023-02-22T23:54:16.567Z,6.20
2023-02-22T23:57:02.431Z,7.18
2023-02-22T23:59:30.644Z,6.00
